sensor_id;sensor_type;location;lat;lon;timestamp;pressure;altitude;pressure_sealevel;temperature;humidity
45403;BME280;47427;51.976;5.326;2022-07-24T00:03:07;101819.22;;;18.36;74.87
45403;BME280;47427;51.976;5.326;2022-07-24T00:06:30;101814.78;;;18.36;75.15
45403;BME280;47427;51.976;5.326;2022-07-24T00:09:53;101826.28;;;18.37;75.46
45403;BME280;47427;51.976;5.326;2022-07-24T00:13:16;101822.75;;;18.36;75.13
45403;BME280;47427;51.976;5.326;2022-07-24T00:16:39;101824.53;;;18.36;75.41
45403;BME280;47427;51.976;5.326;2022-07-24T00:20:20;101828.00;;;18.32;75.93
45403;BME280;47427;51.976;5.326;2022-07-24T00:23:43;101828.81;;;18.25;76.05
45403;BME280;47427;51.976;5.326;2022-07-24T00:27:06;101830.56;;;18.21;76.24
45403;BME280;47427;51.976;5.326;2022-07-24T00:30:29;101831.41;;;18.15;76.42
45403;BME280;47427;51.976;5.326;2022-07-24T00:33:52;101830.50;;;18.13;76.21
45403;BME280;47427;51.976;5.326;2022-07-24T00:37:14;101825.16;;;18.12;76.37
45403;BME280;47427;51.976;5.326;2022-07-24T00:40:38;101825.13;;;18.09;76.19
45403;BME280;47427;51.976;5.326;2022-07-24T00:44:11;101821.50;;;18.01;75.99
45403;BME280;47427;51.976;5.326;2022-07-24T00:47:53;101832.16;;;18.04;76.51
45403;BME280;47427;51.976;5.326;2022-07-24T00:51:15;101822.34;;;18.00;76.47
45403;BME280;47427;51.976;5.326;2022-07-24T00:54:38;101813.47;;;17.96;76.19
45403;BME280;47427;51.976;5.326;2022-07-24T00:58:01;101816.09;;;17.94;76.11
45403;BME280;47427;51.976;5.326;2022-07-24T01:01:23;101813.41;;;17.91;76.25
45403;BME280;47427;51.976;5.326;2022-07-24T01:04:48;101814.28;;;17.89;76.76
45403;BME280;47427;51.976;5.326;2022-07-24T01:08:11;101813.31;;;17.84;76.56
45403;BME280;47427;51.976;5.326;2022-07-24T01:11:34;101813.22;;;17.79;76.72
45403;BME280;47427;51.976;5.326;2022-07-24T01:14:56;101806.97;;;17.74;76.67
45403;BME280;47427;51.976;5.326;2022-07-24T01:18:19;101812.28;;;17.74;76.74
45403;BME280;47427;51.976;5.326;2022-07-24T01:21:50;101802.50;;;17.68;77.23
45403;BME280;47427;51.976;5.326;2022-07-24T01:25:13;101806.06;;;17.72;77.13
45403;BME280;47427;51.976;5.326;2022-07-24T01:28:36;101791.84;;;17.65;77.37
45403;BME280;47427;51.976;5.326;2022-07-24T01:31:59;101798.09;;;17.70;77.25
45403;BME280;47427;51.976;5.326;2022-07-24T01:35:21;101801.53;;;17.63;77.18
45403;BME280;47427;51.976;5.326;2022-07-24T01:38:44;101798.78;;;17.57;77.48
45403;BME280;47427;51.976;5.326;2022-07-24T01:42:07;101812.09;;;17.59;77.51
45403;BME280;47427;51.976;5.326;2022-07-24T01:45:29;101810.19;;;17.48;77.35
45403;BME280;47427;51.976;5.326;2022-07-24T01:48:52;101802.25;;;17.48;77.53
45403;BME280;47427;51.976;5.326;2022-07-24T01:52:15;101803.06;;;17.43;77.27
45403;BME280;47427;51.976;5.326;2022-07-24T01:55:40;101801.31;;;17.46;76.92
45403;BME280;47427;51.976;5.326;2022-07-24T01:59:03;101802.16;;;17.44;76.86
45403;BME280;47427;51.976;5.326;2022-07-24T02:02:27;101803.94;;;17.43;76.90
45403;BME280;47427;51.976;5.326;2022-07-24T02:05:50;101807.47;;;17.42;77.04
45403;BME280;47427;51.976;5.326;2022-07-24T02:09:12;101807.41;;;17.38;77.19
45403;BME280;47427;51.976;5.326;2022-07-24T02:12:35;101804.72;;;17.36;77.44
45403;BME280;47427;51.976;5.326;2022-07-24T02:15:58;101778.84;;;17.18;77.59
45403;BME280;47427;51.976;5.326;2022-07-24T02:19:20;101794.00;;;17.28;77.94
45403;BME280;47427;51.976;5.326;2022-07-24T02:22:45;101788.75;;;17.30;78.11
45403;BME280;47427;51.976;5.326;2022-07-24T02:26:08;101793.09;;;17.26;78.18
45403;BME280;47427;51.976;5.326;2022-07-24T02:29:49;101793.91;;;17.21;78.73
45403;BME280;47427;51.976;5.326;2022-07-24T02:33:12;101787.59;;;17.14;78.68
45403;BME280;47427;51.976;5.326;2022-07-24T02:36:35;101788.53;;;17.16;79.07
45403;BME280;47427;51.976;5.326;2022-07-24T02:39:57;101781.38;;;17.10;79.36
45403;BME280;47427;51.976;5.326;2022-07-24T02:43:20;101776.91;;;17.06;79.69
45403;BME280;47427;51.976;5.326;2022-07-24T02:46:43;101781.19;;;16.98;79.75
45403;BME280;47427;51.976;5.326;2022-07-24T02:50:29;101790.06;;;17.00;80.13
45403;BME280;47427;51.976;5.326;2022-07-24T02:53:52;101782.06;;;16.96;79.93
45403;BME280;47427;51.976;5.326;2022-07-24T02:57:15;101779.34;;;16.93;80.16
45403;BME280;47427;51.976;5.326;2022-07-24T03:00:37;101781.13;;;16.94;80.61
45403;BME280;47427;51.976;5.326;2022-07-24T03:04:00;101778.47;;;16.92;80.71
45403;BME280;47427;51.976;5.326;2022-07-24T03:07:23;101781.13;;;16.92;80.79
45403;BME280;47427;51.976;5.326;2022-07-24T03:11:04;101777.50;;;16.87;80.79
45403;BME280;47427;51.976;5.326;2022-07-24T03:14:27;101777.47;;;16.84;80.96
45403;BME280;47427;51.976;5.326;2022-07-24T03:17:55;101763.25;;;16.79;81.09
45403;BME280;47427;51.976;5.326;2022-07-24T03:21:18;101758.78;;;16.76;81.63
45403;BME280;47427;51.976;5.326;2022-07-24T03:24:41;101773.03;;;16.81;81.76
45403;BME280;47427;51.976;5.326;2022-07-24T03:28:05;101757.84;;;16.76;81.84
45403;BME280;47427;51.976;5.326;2022-07-24T03:31:27;101751.66;;;16.74;82.22
45403;BME280;47427;51.976;5.326;2022-07-24T03:34:51;101757.88;;;16.77;82.04
45403;BME280;47427;51.976;5.326;2022-07-24T03:38:14;101750.78;;;16.75;82.14
45403;BME280;47427;51.976;5.326;2022-07-24T03:41:36;101752.50;;;16.73;82.16
45403;BME280;47427;51.976;5.326;2022-07-24T03:44:59;101740.91;;;16.66;82.54
45403;BME280;47427;51.976;5.326;2022-07-24T03:48:22;101747.09;;;16.65;82.46
45403;BME280;47427;51.976;5.326;2022-07-24T03:51:44;101750.66;;;16.67;83.00
45403;BME280;47427;51.976;5.326;2022-07-24T03:55:07;101756.88;;;16.69;83.14
45403;BME280;47427;51.976;5.326;2022-07-24T03:58:31;101752.50;;;16.71;83.34
45403;BME280;47427;51.976;5.326;2022-07-24T04:01:53;101755.16;;;16.71;83.23
45403;BME280;47427;51.976;5.326;2022-07-24T04:05:34;101750.72;;;16.68;83.50
45403;BME280;47427;51.976;5.326;2022-07-24T04:08:58;101746.22;;;16.66;83.62
45403;BME280;47427;51.976;5.326;2022-07-24T04:12:20;101742.69;;;16.64;83.86
45403;BME280;47427;51.976;5.326;2022-07-24T04:15:43;101746.25;;;16.67;84.32
45403;BME280;47427;51.976;5.326;2022-07-24T04:19:06;101758.63;;;16.67;84.69
45403;BME280;47427;51.976;5.326;2022-07-24T04:22:28;101755.94;;;16.65;84.50
45403;BME280;47427;51.976;5.326;2022-07-24T04:25:51;101759.47;;;16.64;84.81
45403;BME280;47427;51.976;5.326;2022-07-24T04:29:14;101760.31;;;16.63;84.91
45403;BME280;47427;51.976;5.326;2022-07-24T04:32:37;101769.13;;;16.62;85.04
45403;BME280;47427;51.976;5.326;2022-07-24T04:36:00;101773.63;;;16.66;85.09
45403;BME280;47427;51.976;5.326;2022-07-24T04:39:22;101775.47;;;16.72;85.79
45403;BME280;47427;51.976;5.326;2022-07-24T04:42:45;101778.25;;;16.78;85.51
45403;BME280;47427;51.976;5.326;2022-07-24T04:46:08;101767.75;;;16.86;86.06
45403;BME280;47427;51.976;5.326;2022-07-24T04:49:30;101758.00;;;16.83;86.13
45403;BME280;47427;51.976;5.326;2022-07-24T04:52:53;101764.31;;;16.90;86.03
45403;BME280;47427;51.976;5.326;2022-07-24T04:56:16;101752.81;;;16.91;86.34
45403;BME280;47427;51.976;5.326;2022-07-24T04:59:38;101752.00;;;16.95;86.21
45403;BME280;47427;51.976;5.326;2022-07-24T05:03:01;101757.44;;;17.04;85.72
45403;BME280;47427;51.976;5.326;2022-07-24T05:06:24;101761.94;;;17.11;85.71
45403;BME280;47427;51.976;5.326;2022-07-24T05:09:47;101745.19;;;17.13;85.36
45403;BME280;47427;51.976;5.326;2022-07-24T05:13:10;101756.78;;;17.19;85.02
45403;BME280;47427;51.976;5.326;2022-07-24T05:16:32;101747.09;;;17.23;85.07
45403;BME280;47427;51.976;5.326;2022-07-24T05:19:55;101767.59;;;17.35;84.64
45403;BME280;47427;51.976;5.326;2022-07-24T05:23:18;101768.56;;;17.43;84.71
45403;BME280;47427;51.976;5.326;2022-07-24T05:26:40;101773.97;;;17.50;84.65
45403;BME280;47427;51.976;5.326;2022-07-24T05:30:06;101776.66;;;17.53;85.29
45403;BME280;47427;51.976;5.326;2022-07-24T05:33:29;101775.88;;;17.61;84.81
45403;BME280;47427;51.976;5.326;2022-07-24T05:36:52;101784.84;;;17.73;84.69
45403;BME280;47427;51.976;5.326;2022-07-24T05:40:14;101782.22;;;17.76;84.89
45403;BME280;47427;51.976;5.326;2022-07-24T05:43:37;101784.09;;;17.82;84.77
45403;BME280;47427;51.976;5.326;2022-07-24T05:47:00;101788.59;;;17.89;84.91
45403;BME280;47427;51.976;5.326;2022-07-24T05:50:23;101783.41;;;17.98;84.63
45403;BME280;47427;51.976;5.326;2022-07-24T05:53:46;101776.38;;;18.05;84.30
45403;BME280;47427;51.976;5.326;2022-07-24T05:57:09;101786.31;;;18.23;83.85
45403;BME280;47427;51.976;5.326;2022-07-24T06:00:31;101790.84;;;18.33;83.67
45403;BME280;47427;51.976;5.326;2022-07-24T06:03:54;101797.16;;;18.51;83.47
45403;BME280;47427;51.976;5.326;2022-07-24T06:07:17;101801.75;;;18.67;82.37
45403;BME280;47427;51.976;5.326;2022-07-24T06:10:40;101804.59;;;18.87;82.07
45403;BME280;47427;51.976;5.326;2022-07-24T06:14:22;101794.09;;;19.07;80.94
45403;BME280;47427;51.976;5.326;2022-07-24T06:17:44;101782.66;;;19.20;80.26
45403;BME280;47427;51.976;5.326;2022-07-24T06:21:07;101792.47;;;19.31;78.89
45403;BME280;47427;51.976;5.326;2022-07-24T06:24:30;101796.97;;;19.45;78.07
45403;BME280;47427;51.976;5.326;2022-07-24T06:27:53;101790.78;;;19.51;77.58
45403;BME280;47427;51.976;5.326;2022-07-24T06:31:16;101789.94;;;19.60;77.05
45403;BME280;47427;51.976;5.326;2022-07-24T06:34:38;101788.22;;;19.69;77.02
45403;BME280;47427;51.976;5.326;2022-07-24T06:38:01;101790.06;;;19.89;75.76
45403;BME280;47427;51.976;5.326;2022-07-24T06:41:24;101784.72;;;19.92;75.49
45403;BME280;47427;51.976;5.326;2022-07-24T06:44:46;101774.06;;;19.95;75.47
45403;BME280;47427;51.976;5.326;2022-07-24T06:48:09;101781.22;;;20.10;74.13
45403;BME280;47427;51.976;5.326;2022-07-24T06:51:32;101775.03;;;20.14;73.17
45403;BME280;47427;51.976;5.326;2022-07-24T06:54:55;101791.03;;;20.34;72.59
45403;BME280;47427;51.976;5.326;2022-07-24T06:58:17;101782.16;;;20.37;71.91
45403;BME280;47427;51.976;5.326;2022-07-24T07:01:40;101780.34;;;20.43;71.44
45403;BME280;47427;51.976;5.326;2022-07-24T07:05:06;101784.84;;;20.49;70.62
45403;BME280;47427;51.976;5.326;2022-07-24T07:08:29;101796.41;;;20.74;69.91
45403;BME280;47427;51.976;5.326;2022-07-24T07:11:51;101790.16;;;20.90;69.58
45403;BME280;47427;51.976;5.326;2022-07-24T07:15:14;101778.56;;;21.14;69.02
45403;BME280;47427;51.976;5.326;2022-07-24T07:18:37;101790.09;;;21.21;67.36
45403;BME280;47427;51.976;5.326;2022-07-24T07:22:00;101790.03;;;21.36;66.20
45403;BME280;47427;51.976;5.326;2022-07-24T07:25:23;101793.59;;;21.49;65.54
45403;BME280;47427;51.976;5.326;2022-07-24T07:28:46;101785.53;;;21.57;65.39
45403;BME280;47427;51.976;5.326;2022-07-24T07:32:10;101787.25;;;21.72;65.14
45403;BME280;47427;51.976;5.326;2022-07-24T07:35:33;101797.50;;;22.45;62.36
45403;BME280;47427;51.976;5.326;2022-07-24T07:38:55;101794.63;;;24.79;54.90
45403;BME280;47427;51.976;5.326;2022-07-24T07:42:20;101785.81;;;27.12;48.64
45403;BME280;47427;51.976;5.326;2022-07-24T07:45:42;101780.13;;;28.41;45.35
45403;BME280;47427;51.976;5.326;2022-07-24T07:49:05;101773.06;;;29.15;42.85
45403;BME280;47427;51.976;5.326;2022-07-24T07:52:28;101784.88;;;30.07;39.05
45403;BME280;47427;51.976;5.326;2022-07-24T07:55:50;101781.94;;;31.19;38.06
45403;BME280;47427;51.976;5.326;2022-07-24T07:59:14;101788.91;;;32.21;35.89
45403;BME280;47427;51.976;5.326;2022-07-24T08:02:36;101785.34;;;32.74;35.40
45403;BME280;47427;51.976;5.326;2022-07-24T08:05:59;101785.50;;;33.56;32.92
45403;BME280;47427;51.976;5.326;2022-07-24T08:09:22;101783.31;;;32.06;35.14
45403;BME280;47427;51.976;5.326;2022-07-24T08:12:45;101782.78;;;31.79;35.49
45403;BME280;47427;51.976;5.326;2022-07-24T08:16:06;101794.72;;;30.54;37.50
45403;BME280;47427;51.976;5.326;2022-07-24T08:19:29;101791.81;;;28.68;40.23
45403;BME280;47427;51.976;5.326;2022-07-24T08:23:11;101789.13;;;28.68;42.02
45403;BME280;47427;51.976;5.326;2022-07-24T08:26:33;101787.81;;;27.99;42.57
45403;BME280;47427;51.976;5.326;2022-07-24T08:29:56;101784.31;;;27.34;43.78
45403;BME280;47427;51.976;5.326;2022-07-24T08:33:18;101779.91;;;30.62;38.71
45403;BME280;47427;51.976;5.326;2022-07-24T08:36:41;101781.09;;;32.14;35.78
45403;BME280;47427;51.976;5.326;2022-07-24T08:40:09;101785.31;;;34.08;32.10
45403;BME280;47427;51.976;5.326;2022-07-24T08:43:32;101769.38;;;35.79;29.14
45403;BME280;47427;51.976;5.326;2022-07-24T08:46:58;101774.59;;;37.42;26.95
45403;BME280;47427;51.976;5.326;2022-07-24T08:50:20;101766.97;;;38.80;24.22
45403;BME280;47427;51.976;5.326;2022-07-24T08:53:43;101759.66;;;39.03;24.37
45403;BME280;47427;51.976;5.326;2022-07-24T08:57:24;101753.47;;;37.93;24.98
45403;BME280;47427;51.976;5.326;2022-07-24T09:00:47;101757.09;;;37.94;25.18
45403;BME280;47427;51.976;5.326;2022-07-24T09:04:44;101753.81;;;39.53;24.40
45403;BME280;47427;51.976;5.326;2022-07-24T09:08:12;101741.25;;;41.21;22.42
45403;BME280;47427;51.976;5.326;2022-07-24T09:11:37;101742.06;;;40.28;22.01
45403;BME280;47427;51.976;5.326;2022-07-24T09:15:01;101733.91;;;41.31;21.51
45403;BME280;47427;51.976;5.326;2022-07-24T09:18:30;101734.91;;;40.58;22.00
45403;BME280;47427;51.976;5.326;2022-07-24T09:21:52;101733.06;;;40.26;21.68
45403;BME280;47427;51.976;5.326;2022-07-24T09:28:53;101733.97;;;39.49;22.63
45403;BME280;47427;51.976;5.326;2022-07-24T09:32:22;101728.19;;;40.92;21.53
45403;BME280;47427;51.976;5.326;2022-07-24T09:35:49;101731.41;;;41.59;21.42
45403;BME280;47427;51.976;5.326;2022-07-24T09:39:18;101738.94;;;42.27;19.07
45403;BME280;47427;51.976;5.326;2022-07-24T09:43:24;101727.03;;;42.07;19.22
45403;BME280;47427;51.976;5.326;2022-07-24T09:46:54;101734.72;;;42.52;19.54
45403;BME280;47427;51.976;5.326;2022-07-24T09:50:17;101726.59;;;43.72;17.64
45403;BME280;47427;51.976;5.326;2022-07-24T09:53:40;101718.78;;;43.02;17.74
45403;BME280;47427;51.976;5.326;2022-07-24T09:57:29;101722.44;;;42.93;17.37
45403;BME280;47427;51.976;5.326;2022-07-24T10:00:56;101726.13;;;42.55;17.92
45403;BME280;47427;51.976;5.326;2022-07-24T10:04:19;101723.41;;;43.02;17.84
45403;BME280;47427;51.976;5.326;2022-07-24T10:07:41;101720.94;;;42.99;17.57
45403;BME280;47427;51.976;5.326;2022-07-24T10:11:04;101718.94;;;43.84;16.27
45403;BME280;47427;51.976;5.326;2022-07-24T10:14:27;101717.66;;;42.85;18.07
45403;BME280;47427;51.976;5.326;2022-07-24T10:18:15;101707.16;;;44.53;17.90
45403;BME280;47427;51.976;5.326;2022-07-24T10:21:38;101716.63;;;45.80;15.35
45403;BME280;47427;51.976;5.326;2022-07-24T10:25:06;101709.00;;;44.71;16.95
45403;BME280;47427;51.976;5.326;2022-07-24T10:28:41;101697.88;;;44.89;16.01
45403;BME280;47427;51.976;5.326;2022-07-24T10:32:04;101706.03;;;45.75;14.73
45403;BME280;47427;51.976;5.326;2022-07-24T10:35:28;101700.13;;;43.42;16.66
45403;BME280;47427;51.976;5.326;2022-07-24T10:39:18;101690.97;;;44.85;16.28
45403;BME280;47427;51.976;5.326;2022-07-24T10:43:09;101695.31;;;44.25;15.93
45403;BME280;47427;51.976;5.326;2022-07-24T10:46:30;101694.88;;;44.12;16.65
45403;BME280;47427;51.976;5.326;2022-07-24T10:49:52;101686.53;;;45.00;15.60
45403;BME280;47427;51.976;5.326;2022-07-24T10:53:21;101689.59;;;45.23;15.16
45403;BME280;47427;51.976;5.326;2022-07-24T10:57:03;101682.66;;;45.19;15.70
45403;BME280;47427;51.976;5.326;2022-07-24T11:00:51;101680.56;;;45.72;15.40
45403;BME280;47427;51.976;5.326;2022-07-24T11:04:31;101679.44;;;46.40;15.09
45403;BME280;47427;51.976;5.326;2022-07-24T11:08:24;101656.75;;;44.76;16.11
45403;BME280;47427;51.976;5.326;2022-07-24T11:15:13;101662.72;;;45.66;16.47
45403;BME280;47427;51.976;5.326;2022-07-24T11:22:17;101662.91;;;46.46;14.48
45403;BME280;47427;51.976;5.326;2022-07-24T11:25:39;101660.66;;;46.25;14.77
45403;BME280;47427;51.976;5.326;2022-07-24T11:32:41;101655.13;;;46.25;15.59
45403;BME280;47427;51.976;5.326;2022-07-24T11:36:08;101653.53;;;46.56;14.54
45403;BME280;47427;51.976;5.326;2022-07-24T11:39:39;101652.66;;;45.65;15.93
45403;BME280;47427;51.976;5.326;2022-07-24T11:43:05;101636.16;;;46.62;14.65
45403;BME280;47427;51.976;5.326;2022-07-24T11:46:53;101638.69;;;46.32;15.37
45403;BME280;47427;51.976;5.326;2022-07-24T11:50:19;101624.66;;;46.81;15.44
45403;BME280;47427;51.976;5.326;2022-07-24T11:53:43;101630.25;;;46.65;14.95
45403;BME280;47427;51.976;5.326;2022-07-24T11:57:29;101631.97;;;46.66;14.93
45403;BME280;47427;51.976;5.326;2022-07-24T12:00:51;101626.38;;;45.94;15.99
45403;BME280;47427;51.976;5.326;2022-07-24T12:04:12;101617.31;;;45.75;16.99
45403;BME280;47427;51.976;5.326;2022-07-24T12:07:41;101606.03;;;45.93;15.09
45403;BME280;47427;51.976;5.326;2022-07-24T12:11:03;101616.03;;;45.45;15.29
45403;BME280;47427;51.976;5.326;2022-07-24T12:14:30;101606.03;;;45.02;16.04
45403;BME280;47427;51.976;5.326;2022-07-24T12:18:05;101598.72;;;45.43;16.01
45403;BME280;47427;51.976;5.326;2022-07-24T12:21:30;101598.75;;;44.92;16.67
45403;BME280;47427;51.976;5.326;2022-07-24T12:24:55;101598.53;;;45.36;16.46
45403;BME280;47427;51.976;5.326;2022-07-24T12:28:19;101591.16;;;45.03;16.17
45403;BME280;47427;51.976;5.326;2022-07-24T12:31:40;101587.38;;;46.67;15.75
45403;BME280;47427;51.976;5.326;2022-07-24T12:35:11;101589.28;;;47.46;14.09
45403;BME280;47427;51.976;5.326;2022-07-24T12:38:40;101592.13;;;45.28;15.59
45403;BME280;47427;51.976;5.326;2022-07-24T12:42:03;101582.34;;;45.15;15.81
45403;BME280;47427;51.976;5.326;2022-07-24T12:45:24;101575.91;;;45.15;16.84
45403;BME280;47427;51.976;5.326;2022-07-24T12:49:09;101572.25;;;44.64;16.10
45403;BME280;47427;51.976;5.326;2022-07-24T12:52:31;101560.53;;;44.09;16.46
45403;BME280;47427;51.976;5.326;2022-07-24T12:59:38;101552.97;;;45.47;16.32
45403;BME280;47427;51.976;5.326;2022-07-24T13:03:00;101552.81;;;45.90;16.68
45403;BME280;47427;51.976;5.326;2022-07-24T13:06:44;101554.22;;;45.69;16.32
45403;BME280;47427;51.976;5.326;2022-07-24T13:10:07;101548.06;;;44.74;16.32
45403;BME280;47427;51.976;5.326;2022-07-24T13:13:30;101536.59;;;44.52;17.13
45403;BME280;47427;51.976;5.326;2022-07-24T13:16:53;101539.53;;;44.25;16.81
45403;BME280;47427;51.976;5.326;2022-07-24T13:20:14;101535.81;;;45.52;16.00
45403;BME280;47427;51.976;5.326;2022-07-24T13:23:37;101522.84;;;45.85;15.88
45403;BME280;47427;51.976;5.326;2022-07-24T13:27:00;101516.94;;;46.60;15.33
45403;BME280;47427;51.976;5.326;2022-07-24T13:30:22;101520.59;;;45.80;16.96
45403;BME280;47427;51.976;5.326;2022-07-24T13:33:47;101511.34;;;44.64;16.29
45403;BME280;47427;51.976;5.326;2022-07-24T13:37:08;101500.66;;;44.77;16.84
45403;BME280;47427;51.976;5.326;2022-07-24T13:40:31;101498.56;;;45.22;16.54
45403;BME280;47427;51.976;5.326;2022-07-24T13:43:54;101502.41;;;44.70;16.27
45403;BME280;47427;51.976;5.326;2022-07-24T13:47:17;101479.88;;;45.48;16.76
45403;BME280;47427;51.976;5.326;2022-07-24T13:50:39;101477.25;;;45.79;15.72
45403;BME280;47427;51.976;5.326;2022-07-24T13:54:01;101469.22;;;44.78;16.37
45403;BME280;47427;51.976;5.326;2022-07-24T13:57:24;101475.06;;;44.75;16.50
45403;BME280;47427;51.976;5.326;2022-07-24T14:00:47;101464.28;;;43.69;17.35
45403;BME280;47427;51.976;5.326;2022-07-24T14:04:08;101461.31;;;44.14;16.93
45403;BME280;47427;51.976;5.326;2022-07-24T14:07:31;101457.91;;;44.29;16.78
45403;BME280;47427;51.976;5.326;2022-07-24T14:10:53;101447.97;;;44.95;17.45
45403;BME280;47427;51.976;5.326;2022-07-24T14:14:15;101442.19;;;46.51;16.19
45403;BME280;47427;51.976;5.326;2022-07-24T14:17:40;101441.00;;;45.89;16.35
45403;BME280;47427;51.976;5.326;2022-07-24T14:21:01;101441.25;;;45.22;16.79
45403;BME280;47427;51.976;5.326;2022-07-24T14:24:24;101439.53;;;45.21;16.14
45403;BME280;47427;51.976;5.326;2022-07-24T14:27:45;101430.13;;;45.55;16.26
45403;BME280;47427;51.976;5.326;2022-07-24T14:31:08;101437.44;;;46.59;16.00
45403;BME280;47427;51.976;5.326;2022-07-24T14:34:31;101417.31;;;46.26;15.42
45403;BME280;47427;51.976;5.326;2022-07-24T14:37:53;101427.59;;;46.88;15.73
45403;BME280;47427;51.976;5.326;2022-07-24T14:41:15;101414.72;;;47.56;14.55
45403;BME280;47427;51.976;5.326;2022-07-24T14:44:57;101412.91;;;47.40;14.47
45403;BME280;47427;51.976;5.326;2022-07-24T14:48:19;101409.50;;;46.61;15.26
45403;BME280;47427;51.976;5.326;2022-07-24T14:51:42;101403.31;;;46.11;14.86
45403;BME280;47427;51.976;5.326;2022-07-24T14:59:08;101384.44;;;44.85;17.14
45403;BME280;47427;51.976;5.326;2022-07-24T15:02:30;101384.31;;;46.00;15.72
45403;BME280;47427;51.976;5.326;2022-07-24T15:05:53;101369.75;;;45.98;15.89
45403;BME280;47427;51.976;5.326;2022-07-24T15:09:15;101373.22;;;46.71;15.17
45403;BME280;47427;51.976;5.326;2022-07-24T15:12:37;101366.47;;;46.88;14.45
45403;BME280;47427;51.976;5.326;2022-07-24T15:16:00;101364.94;;;46.23;15.49
45403;BME280;47427;51.976;5.326;2022-07-24T15:19:21;101361.44;;;45.98;15.65
45403;BME280;47427;51.976;5.326;2022-07-24T15:22:44;101353.09;;;45.01;16.03
45403;BME280;47427;51.976;5.326;2022-07-24T15:26:06;101356.53;;;45.11;15.98
45403;BME280;47427;51.976;5.326;2022-07-24T15:29:28;101343.91;;;45.09;16.08
45403;BME280;47427;51.976;5.326;2022-07-24T15:32:53;101343.94;;;44.25;16.78
45403;BME280;47427;51.976;5.326;2022-07-24T15:36:14;101342.72;;;43.51;17.71
45403;BME280;47427;51.976;5.326;2022-07-24T15:39:37;101336.91;;;43.97;16.86
45403;BME280;47427;51.976;5.326;2022-07-24T15:43:01;101326.16;;;42.89;18.22
45403;BME280;47427;51.976;5.326;2022-07-24T15:46:24;101316.78;;;43.00;18.90
45403;BME280;47427;51.976;5.326;2022-07-24T15:49:47;101314.88;;;43.53;17.82
45403;BME280;47427;51.976;5.326;2022-07-24T15:53:09;101312.16;;;42.19;18.85
45403;BME280;47427;51.976;5.326;2022-07-24T15:56:32;101311.44;;;41.52;20.46
45403;BME280;47427;51.976;5.326;2022-07-24T15:59:55;101302.28;;;41.61;20.16
45403;BME280;47427;51.976;5.326;2022-07-24T16:03:17;101295.81;;;40.16;20.90
45403;BME280;47427;51.976;5.326;2022-07-24T16:06:40;101292.56;;;40.51;21.02
45403;BME280;47427;51.976;5.326;2022-07-24T16:10:04;101281.91;;;39.16;22.10
45403;BME280;47427;51.976;5.326;2022-07-24T16:13:26;101289.53;;;39.33;22.17
45403;BME280;47427;51.976;5.326;2022-07-24T16:16:49;101285.63;;;38.73;22.84
45403;BME280;47427;51.976;5.326;2022-07-24T16:20:12;101279.69;;;38.56;23.14
45403;BME280;47427;51.976;5.326;2022-07-24T16:23:35;101279.84;;;38.00;24.07
45403;BME280;47427;51.976;5.326;2022-07-24T16:26:59;101266.97;;;38.23;24.45
45403;BME280;47427;51.976;5.326;2022-07-24T16:30:21;101261.38;;;37.12;24.79
45403;BME280;47427;51.976;5.326;2022-07-24T16:33:43;101258.22;;;34.97;27.93
45403;BME280;47427;51.976;5.326;2022-07-24T16:37:05;101242.81;;;34.16;30.23
45403;BME280;47427;51.976;5.326;2022-07-24T16:40:28;101255.13;;;33.23;30.78
45403;BME280;47427;51.976;5.326;2022-07-24T16:43:51;101243.63;;;32.73;32.06
45403;BME280;47427;51.976;5.326;2022-07-24T16:47:12;101242.66;;;32.44;32.93
45403;BME280;47427;51.976;5.326;2022-07-24T16:50:35;101245.22;;;32.15;33.80
45403;BME280;47427;51.976;5.326;2022-07-24T16:53:58;101232.97;;;32.24;33.34
45403;BME280;47427;51.976;5.326;2022-07-24T16:57:21;101224.13;;;32.05;33.79
45403;BME280;47427;51.976;5.326;2022-07-24T17:00:43;101235.84;;;32.21;34.27
45403;BME280;47427;51.976;5.326;2022-07-24T17:04:05;101229.25;;;32.41;34.30
45403;BME280;47427;51.976;5.326;2022-07-24T17:07:28;101230.47;;;32.35;33.82
45403;BME280;47427;51.976;5.326;2022-07-24T17:10:51;101223.84;;;32.25;34.95
45403;BME280;47427;51.976;5.326;2022-07-24T17:14:13;101226.94;;;32.03;35.21
45403;BME280;47427;51.976;5.326;2022-07-24T17:17:36;101219.63;;;31.72;35.52
45403;BME280;47427;51.976;5.326;2022-07-24T17:21:17;101226.34;;;31.65;35.59
45403;BME280;47427;51.976;5.326;2022-07-24T17:24:40;101221.13;;;31.78;34.86
45403;BME280;47427;51.976;5.326;2022-07-24T17:28:06;101220.78;;;31.68;36.12
45403;BME280;47427;51.976;5.326;2022-07-24T17:31:28;101213.94;;;31.61;35.95
45403;BME280;47427;51.976;5.326;2022-07-24T17:34:50;101227.16;;;31.34;36.44
45403;BME280;47427;51.976;5.326;2022-07-24T17:38:12;101210.75;;;31.19;36.32
45403;BME280;47427;51.976;5.326;2022-07-24T17:41:35;101220.34;;;31.09;36.63
45403;BME280;47427;51.976;5.326;2022-07-24T17:44:57;101218.69;;;31.06;36.46
45403;BME280;47427;51.976;5.326;2022-07-24T17:48:19;101210.91;;;31.00;36.87
45403;BME280;47427;51.976;5.326;2022-07-24T17:51:42;101211.88;;;30.82;36.90
45403;BME280;47427;51.976;5.326;2022-07-24T17:55:06;101211.75;;;30.66;37.88
45403;BME280;47427;51.976;5.326;2022-07-24T17:58:29;101205.81;;;30.59;37.82
45403;BME280;47427;51.976;5.326;2022-07-24T18:01:52;101208.09;;;30.50;38.89
45403;BME280;47427;51.976;5.326;2022-07-24T18:05:15;101206.91;;;30.38;39.24
45403;BME280;47427;51.976;5.326;2022-07-24T18:08:38;101206.19;;;30.34;39.53
45403;BME280;47427;51.976;5.326;2022-07-24T18:12:03;101199.63;;;30.21;39.84
45403;BME280;47427;51.976;5.326;2022-07-24T18:15:26;101191.31;;;30.07;39.95